Flight Track Log - Related Links

Times and Time Zones

All times are in EDT time to prevent confusion due to time zone crossing. See the BFF202 flight status page for this flight to view local times or setup timezone preferences in your user account.

Time Position Orientation Groundspeed Altitude Reporting Facility
EDT Latitude Longitude Course Direction KTS MPH feet Rate Location/Type
Wed 05:46:00 PM 69.4899 -75.9361 148° Southeast  Level FlightAware Approximate
Wed 05:47:00 PM 69.4318 -75.8390 150° Southeast  Level FlightAware Approximate
Wed 05:48:00 PM 69.3737 -75.7423 150° Southeast  Level FlightAware Approximate
Wed 05:49:00 PM 69.3154 -75.6462 150° Southeast  Level FlightAware Approximate
Wed 05:50:00 PM 69.2572 -75.5506 150° Southeast  Level FlightAware Approximate
Wed 05:51:00 PM 69.1989 -75.4555 150° Southeast  Level FlightAware Approximate
Wed 05:52:00 PM 69.1405 -75.3609 150° Southeast  Level FlightAware Approximate
Wed 05:53:00 PM 69.0820 -75.2668 150° Southeast  Level FlightAware Approximate
Wed 05:54:00 PM 69.0236 -75.1732 150° Southeast  Level FlightAware Approximate
Wed 05:55:00 PM 68.9650 -75.0801 150° Southeast  Level FlightAware Approximate
Wed 05:56:00 PM 68.9064 -74.9875 150° Southeast  Level FlightAware Approximate
Wed 05:57:00 PM 68.8478 -74.8954 150° Southeast  Level FlightAware Approximate
Wed 05:58:00 PM 68.7891 -74.8038 151° Southeast  Level FlightAware Approximate
Wed 05:59:00 PM 68.7304 -74.7127 151° Southeast  Level FlightAware Approximate
Wed 06:00:00 PM 68.6716 -74.6220 151° Southeast  Level FlightAware Approximate
Wed 06:01:00 PM 68.6126 -74.5345 152° Southeast  Level FlightAware Approximate
Wed 06:02:00 PM 68.5535 -74.4474 152° Southeast  Level FlightAware Approximate
Wed 06:03:00 PM 68.4944 -74.3608 152° Southeast  Level FlightAware Approximate
Wed 06:04:00 PM 68.4352 -74.2746 152° Southeast  Level FlightAware Approximate
Wed 06:05:00 PM 68.3760 -74.1889 152° Southeast  Level FlightAware Approximate
Wed 06:06:00 PM 68.3167 -74.1036 152° Southeast  Level FlightAware Approximate
Wed 06:07:00 PM 68.2574 -74.0188 152° Southeast  Level FlightAware Approximate
Wed 06:08:00 PM 68.1980 -73.9344 152° Southeast  Level FlightAware Approximate
Wed 06:09:00 PM 68.1386 -73.8505 152° Southeast  Level FlightAware Approximate
Wed 06:10:00 PM 68.0792 -73.7669 152° Southeast  Level FlightAware Approximate
Wed 06:11:00 PM 68.0197 -73.6839 152° Southeast  Level FlightAware Approximate
Wed 06:12:00 PM 67.9602 -73.6012 152° Southeast  Level FlightAware Approximate
Wed 06:13:00 PM 67.9006 -73.5190 153° Southeast  Level FlightAware Approximate
Wed 06:14:00 PM 67.8410 -73.4371 153° Southeast  Level FlightAware Approximate
Wed 06:15:00 PM 67.7814 -73.3557 153° Southeast  Level FlightAware Approximate
Wed 06:16:00 PM 67.7217 -73.2747 153° Southeast  Level FlightAware Approximate
Wed 06:17:00 PM 67.6620 -73.1942 153° Southeast  Level FlightAware Approximate
Wed 06:18:00 PM 67.6022 -73.1129 152° Southeast  Level FlightAware Approximate
Wed 06:19:00 PM 67.5430 -73.0300 152° Southeast  Level FlightAware Approximate
Wed 06:20:00 PM 67.4838 -72.9474 152° Southeast  Level FlightAware Approximate
Wed 06:21:00 PM 67.4245 -72.8652 152° Southeast  Level FlightAware Approximate
Wed 06:22:00 PM 67.3652 -72.7835 152° Southeast  Level FlightAware Approximate
Wed 06:23:00 PM 67.3059 -72.7022 152° Southeast  Level FlightAware Approximate
Wed 06:24:00 PM 67.2466 -72.6212 152° Southeast  Level FlightAware Approximate
Wed 06:25:00 PM 67.1871 -72.5407 152° Southeast  Level FlightAware Approximate
Wed 06:26:00 PM 67.1277 -72.4606 152° Southeast  Level FlightAware Approximate
Wed 06:27:00 PM 67.0682 -72.3808 152° Southeast  Level FlightAware Approximate
Wed 06:28:00 PM 67.0087 -72.3015 152° Southeast  Level FlightAware Approximate
Wed 06:29:00 PM 66.9491 -72.2225 153° Southeast  Level FlightAware Approximate
Wed 06:30:00 PM 66.8895 -72.1439 153° Southeast  Level FlightAware Approximate
Wed 06:31:00 PM 66.8298 -72.0657 153° Southeast  Level FlightAware Approximate
Wed 06:32:00 PM 66.7701 -71.9879 153° Southeast  Level FlightAware Approximate
Wed 06:33:00 PM 66.7104 -71.9105 153° Southeast  Level FlightAware Approximate
Wed 06:34:00 PM 66.6507 -71.8334 153° Southeast  Level FlightAware Approximate
Wed 06:35:00 PM 66.5909 -71.7567 153° Southeast  Level FlightAware Approximate
Wed 06:36:00 PM 66.5310 -71.6804 153° Southeast  Level FlightAware Approximate
Wed 06:37:00 PM 66.4711 -71.6044 153° Southeast  Level FlightAware Approximate
Wed 06:38:00 PM 66.4112 -71.5288 153° Southeast  Level FlightAware Approximate
Wed 06:39:00 PM 66.3513 -71.4536 153° Southeast  Level FlightAware Approximate
Wed 06:40:00 PM 66.2913 -71.3787 153° Southeast  Level FlightAware Approximate
Wed 06:41:00 PM 66.2313 -71.3042 153° Southeast  Level FlightAware Approximate
Wed 06:42:00 PM 66.1712 -71.2300 153° Southeast  Level FlightAware Approximate
Wed 06:43:00 PM 66.1111 -71.1562 154° Southeast  Level FlightAware Approximate
Wed 06:44:00 PM 66.0510 -71.0827 154° Southeast  Level FlightAware Approximate
Wed 06:45:00 PM 65.9908 -71.0096 154° Southeast  Level FlightAware Approximate
Wed 06:46:00 PM 65.9306 -70.9369 154° Southeast  Level FlightAware Approximate
Wed 06:47:00 PM 65.8704 -70.8644 154° Southeast  Level FlightAware Approximate
Wed 06:47:11 PM 66.5333 -71.4833 154° Southeast 270 311 27,000  Level Edmonton Center
Wed 06:48:00 PM 65.8101 -70.7923 154° Southeast  Level FlightAware Approximate
Wed 06:48:11 PM 66.4667 -71.4000 153° Southeast 250 288 27,000  Level Edmonton Center
Wed 06:49:00 PM 65.7498 -70.7206 154° Southeast  Level FlightAware Approximate
Wed 06:49:11 PM 66.4000 -71.3333 158° South 250 288 27,000  Level Edmonton Center
Wed 06:50:00 PM 65.6895 -70.6491 154° Southeast  Level FlightAware Approximate
Wed 06:50:11 PM 66.3500 -71.2333 141° Southeast 250 288 27,000  Level Edmonton Center
Wed 06:51:00 PM 65.6291 -70.5781 154° Southeast  Level FlightAware Approximate
Wed 06:51:11 PM 66.2833 -71.1333 149° Southeast 250 288 27,000  Level Edmonton Center
Wed 06:52:00 PM 65.5687 -70.5073 154° Southeast  Level FlightAware Approximate
Wed 06:52:11 PM 66.2167 -71.1000 169° South 250 288 26,900  Level Edmonton Center
Wed 06:53:11 PM 66.1667 -71.0333 152° Southeast 250 288 27,000 50 Climbing Edmonton Center
Wed 06:54:11 PM 66.1000 -70.9333 149° Southeast 250 288 27,000  Level Edmonton Center
Wed 06:55:11 PM 66.0167 -70.8500 158° South 250 288 27,000  Level Edmonton Center
Wed 06:56:11 PM 65.9667 -70.7833 151° Southeast 250 288 27,000  Level Edmonton Center
Wed 06:57:11 PM 65.9000 -70.7500 168° South 250 288 27,000  Level Edmonton Center
Wed 06:58:11 PM 65.8333 -70.6500 148° Southeast 250 288 27,000  Level Edmonton Center
Wed 06:59:11 PM 65.7833 -70.5833 151° Southeast 250 288 27,000  Level Edmonton Center
Wed 07:00:11 PM 65.7167 -70.4833 148° Southeast 250 288 27,000 50 Level Edmonton Center
Wed 07:01:11 PM 65.6667 -70.4167 151° Southeast 250 288 27,100  Climbing Edmonton Center
Wed 07:02:11 PM 65.5833 -70.3500 162° South 250 288 27,000 -50 Descending Edmonton Center
Wed 07:03:11 PM 65.5333 -70.2833 151° Southeast 250 288 27,000  Level Edmonton Center
Wed 07:04:11 PM 65.4500 -70.2167 162° South 250 288 27,000 -50 Level Edmonton Center
Wed 07:05:11 PM 65.4000 -70.1500 151° Southeast 250 288 26,900  Descending Edmonton Center
Wed 07:06:11 PM 65.3333 -70.0500 148° Southeast 250 288 27,000  Climbing Edmonton Center
Wed 07:07:02 PM 65.3500 -70.2000 285° West 250 288 26,900 -54 Descending Montreal Center
Wed 07:08:02 PM 65.2667 -70.0833 150° Southeast 250 288 26,900 50 Level Montreal Center
Wed 07:09:02 PM 65.2000 -70.0333 163° South 250 288 27,000 -200 Climbing Montreal Center
Wed 07:10:02 PM 65.1500 -69.9500 145° Southeast 250 288 26,500 -600 Descending Montreal Center
Wed 07:11:02 PM 65.0833 -69.9000 162° South 260 299 25,800 -700 Descending Montreal Center
Wed 07:12:02 PM 65.0167 -69.8333 157° South 270 311 25,100 -750 Descending Montreal Center
Wed 07:13:02 PM 64.9333 -69.7333 153° Southeast 280 322 24,300 -750 Descending Montreal Center
Wed 07:14:02 PM 64.8667 -69.6667 157° South 280 322 23,600 -950 Descending Montreal Center
Wed 07:15:02 PM 64.8000 -69.6000 157° South 280 322 22,400 -1,250 Descending Montreal Center
Wed 07:16:02 PM 64.7333 -69.5000 147° Southeast 280 322 21,100 -1,400 Descending Montreal Center
Wed 07:17:02 PM 64.6667 -69.4333 157° South 290 334 19,600 -1,500 Descending Montreal Center
Wed 07:18:02 PM 64.5833 -69.3333 153° Southeast 280 322 18,100 -1,550 Descending Montreal Center
Wed 07:19:02 PM 64.5167 -69.2667 157° South 280 322 16,500 -1,650 Descending Montreal Center
Wed 07:20:02 PM 64.4500 -69.1667 147° Southeast 280 322 14,800 -1,650 Descending Montreal Center
Wed 07:21:02 PM 64.3833 -69.1167 162° South 280 322 13,200 -1,750 Descending Montreal Center
Wed 07:22:02 PM 64.3167 -69.0500 157° South 270 311 11,300 -1,800 Descending Montreal Center
Wed 07:23:02 PM 64.2333 -69.0000 165° South 270 311 9,600 -1,650 Descending Montreal Center
Wed 07:24:02 PM 64.1833 -68.8833 135° Southeast 260 299 8,000 -1,650 Descending Montreal Center
Wed 07:25:02 PM 64.1167 -68.8333 162° South 260 299 6,300 -1,400 Descending Montreal Center
Wed 07:26:02 PM 64.0500 -68.7667 156° South 250 288 5,200 -1,050 Descending Montreal Center
Wed 07:27:02 PM 64.0000 -68.7000 150° Southeast 230 265 4,200 -650 Descending Montreal Center
Wed 07:28:02 PM 63.9333 -68.6500 162° South 210 242 3,900 -550 Descending Montreal Center
Wed 07:29:02 PM 63.8833 -68.5833 150° Southeast 200 230 3,100 -750 Descending Montreal Center
Wed 07:30:02 PM 63.8333 -68.5167 150° Southeast 210 242 2,400 -850 Descending Montreal Center
Wed 07:31:02 PM 63.7833 -68.5333 188° South 220 253 1,400 -550 Descending Montreal Center
Wed 07:32:02 PM 63.7333 -68.5500 188° South 170 196 1,300 -350 Descending Montreal Center
Wed 07:33:02 PM 63.7333 -68.4333 90° East 150 173 700 -400 Descending Montreal Center
Wed 07:34:02 PM 63.7667 -68.4667 336° Northwest 120 138 500 -300 Descending Montreal Center
Wed 07:35:02 PM 63.7833 -68.5000 319° Northwest 100 115 100 -400 Descending Montreal Center

Login

Don't have an account? Register now (free) for customized features, flight alerts, and more!